Cicero, New York
Current Conditions -  °F | °C
As of 9:54 AM on Saturday 25 Oct 2014 (Local Time) from KSYR Reporting Station
Overcast Overcast  
Wind Chill: 55°   Ceiling: 4100
Heat Index: 55°   Visibility: 10mi
Dew Point: 47°   Wind: 7mph
Humidity: 74%   Direction: 230°SW
Pressure: 29.8"   Gusts: NA
Location:  43.18°N, 76.12°W
Report Text: KSYR 251354Z 23006KT 10SM BKN041 OVC060 13/08 A2980 RMK AO2 SLP088 T01280083
Loading
Personal Weather Stations






























Interactive Weather Map
Tropical Storm Tracking
New forecast layout! Learn more

10-Day Weather Forecast

Advertisements
Track Severe Weather on mobile